Time;durP1;ratioP1;P1;durP2;ratioP2;P2;SDS_P1;SDS_P2;PMS_P1;PMS_P2;Temp;Humidity;BMP_temperature;BMP_pressure;BME280_temperature;BME280_humidity;BME280_pressure;Samples;Min_cycle;Max_cycle;Signal;HPM_P1;HPM_P2
2024/03/02 00:02:29;;;;;;;1.95;1.40;;;;;;;;;;12484131;23;20042;-74
2024/03/02 00:07:34;;;;;;;1.98;1.60;;;;;;;;;;12483402;23;20067;-74
2024/03/02 00:12:37;;;;;;;2.10;1.65;;;;;;;;;;12508243;23;20023;-74
2024/03/02 00:17:41;;;;;;;2.65;1.70;;;;;;;;;;12486671;23;20027;-74
2024/03/02 00:22:45;;;;;;;1.55;1.23;;;;;;;;;;12483528;23;20027;-74
2024/03/02 00:27:50;;;;;;;2.17;1.40;;;;;;;;;;12486246;23;20456;-74
2024/03/02 00:32:54;;;;;;;1.88;0.90;;;;;;;;;;12503295;23;20019;-74
2024/03/02 00:37:59;;;;;;;1.65;1.10;;;;;;;;;;12483113;23;20045;-74
2024/03/02 00:43:04;;;;;;;0.68;0.68;;;;;;;;;;12484931;23;20027;-74
2024/03/02 00:48:09;;;;;;;1.40;0.90;;;;;;;;;;12503580;23;20078;-74
2024/03/02 00:53:14;;;;;;;0.88;0.88;;;;;;;;;;12499874;23;20035;-74
2024/03/02 00:58:18;;;;;;;2.25;1.50;;;;;;;;;;12499317;23;20086;-74
2024/03/02 01:03:21;;;;;;;2.05;1.83;;;;;;;;;;12499973;23;20027;-74
2024/03/02 01:08:26;;;;;;;3.28;2.28;;;;;;;;;;12482757;23;20027;-74
2024/03/02 01:13:29;;;;;;;3.65;2.63;;;;;;;;;;12482439;23;20628;-74
2024/03/02 01:18:33;;;;;;;4.15;2.75;;;;;;;;;;12498807;23;20087;-74
2024/03/02 01:23:38;;;;;;;4.20;3.65;;;;;;;;;;12480362;23;20511;-74
2024/03/02 01:28:41;;;;;;;7.75;4.45;;;;;;;;;;12497459;23;20023;-74
2024/03/02 01:33:45;;;;;;;7.22;4.88;;;;;;;;;;12497711;23;20671;-74
2024/03/02 01:38:50;;;;;;;7.75;5.07;;;;;;;;;;12482032;23;20034;-74
2024/03/02 01:43:53;;;;;;;6.18;4.22;;;;;;;;;;12496704;23;20031;-74
2024/03/02 01:48:56;;;;;;;6.80;4.78;;;;;;;;;;12480357;23;20027;-74
2024/03/02 01:54:01;;;;;;;5.78;4.00;;;;;;;;;;12478641;23;20031;-74
2024/03/02 01:59:05;;;;;;;7.63;5.72;;;;;;;;;;12495690;23;20095;-74
2024/03/02 02:04:08;;;;;;;10.75;5.78;;;;;;;;;;12495446;23;20027;-74
2024/03/02 02:09:13;;;;;;;8.88;5.97;;;;;;;;;;12494445;23;20031;-74
2024/03/02 02:14:16;;;;;;;8.40;5.57;;;;;;;;;;12480532;23;20536;-74
2024/03/02 02:19:20;;;;;;;7.05;4.78;;;;;;;;;;12493468;23;20083;-74
2024/03/02 02:24:24;;;;;;;6.88;4.88;;;;;;;;;;12494764;23;20591;-74
2024/03/02 02:29:28;;;;;;;5.70;4.47;;;;;;;;;;12493590;23;20027;-74
2024/03/02 02:34:32;;;;;;;6.00;4.45;;;;;;;;;;12493538;23;20027;-74
2024/03/02 02:39:36;;;;;;;6.70;5.07;;;;;;;;;;12488646;23;20042;-74
2024/03/02 02:44:40;;;;;;;9.32;6.40;;;;;;;;;;12492276;23;20052;-74
2024/03/02 02:49:43;;;;;;;7.22;5.40;;;;;;;;;;12491425;23;20019;-74
2024/03/02 02:54:48;;;;;;;8.15;5.28;;;;;;;;;;12491332;23;20027;-74
2024/03/02 02:59:51;;;;;;;6.85;4.88;;;;;;;;;;12491446;23;20027;-74
2024/03/02 03:04:56;;;;;;;6.82;4.72;;;;;;;;;;12478486;23;20515;-74
2024/03/02 03:10:01;;;;;;;5.93;4.33;;;;;;;;;;12490056;23;20027;-74
2024/03/02 03:15:06;;;;;;;7.78;5.22;;;;;;;;;;12478064;23;20110;-74
2024/03/02 03:20:10;;;;;;;6.78;4.38;;;;;;;;;;12490032;23;20034;-74
2024/03/02 03:25:15;;;;;;;7.40;4.25;;;;;;;;;;12479540;23;20715;-74
2024/03/02 03:30:19;;;;;;;5.47;3.83;;;;;;;;;;12479569;23;20041;-74
2024/03/02 03:35:22;;;;;;;5.03;3.50;;;;;;;;;;12479984;23;20033;-74
2024/03/02 03:40:27;;;;;;;4.75;3.58;;;;;;;;;;12488063;23;20086;-74
2024/03/02 03:45:31;;;;;;;5.07;3.92;;;;;;;;;;12488045;23;20027;-74
2024/03/02 03:50:34;;;;;;;7.15;5.18;;;;;;;;;;12488291;23;20079;-74
2024/03/02 03:55:39;;;;;;;7.30;4.57;;;;;;;;;;12487769;23;20027;-74
2024/03/02 04:00:42;;;;;;;5.40;3.60;;;;;;;;;;12487384;23;20486;-74
2024/03/02 04:05:45;;;;;;;5.45;4.18;;;;;;;;;;12487242;23;20454;-74
2024/03/02 04:10:50;;;;;;;4.97;3.50;;;;;;;;;;12478814;23;20087;-74
2024/03/02 04:15:53;;;;;;;5.10;3.33;;;;;;;;;;12486572;23;20034;-73
2024/03/02 04:20:58;;;;;;;4.15;3.05;;;;;;;;;;12477773;23;20031;-74
2024/03/02 04:26:03;;;;;;;3.25;2.63;;;;;;;;;;12480429;23;20051;-74
2024/03/02 04:31:06;;;;;;;4.88;3.33;;;;;;;;;;12488879;23;20034;-74
2024/03/02 04:36:10;;;;;;;4.10;2.92;;;;;;;;;;12487891;23;20024;-74
2024/03/02 04:41:15;;;;;;;3.53;3.05;;;;;;;;;;12482729;23;20091;-74
2024/03/02 04:46:18;;;;;;;3.38;2.40;;;;;;;;;;12487437;23;20459;-74
2024/03/02 04:51:21;;;;;;;3.05;2.10;;;;;;;;;;12482439;23;20409;-74
2024/03/02 04:56:44;;;;;;;2.20;1.92;;;;;;;;;;12488553;23;20475;-74
2024/03/02 05:01:48;;;;;;;3.22;1.80;;;;;;;;;;12482153;23;20031;-74
2024/03/02 05:06:52;;;;;;;2.65;2.17;;;;;;;;;;12482473;23;20034;-74
2024/03/02 05:12:11;;;;;;;4.10;2.83;;;;;;;;;;12485451;23;20105;-74
2024/03/02 05:17:14;;;;;;;3.75;2.45;;;;;;;;;;12480895;23;20023;-74
2024/03/02 05:22:18;;;;;;;2.55;1.80;;;;;;;;;;12481402;23;20034;-74
2024/03/02 05:27:23;;;;;;;1.73;1.48;;;;;;;;;;12483863;23;20071;-74
2024/03/02 05:32:26;;;;;;;3.30;2.20;;;;;;;;;;12481888;23;20062;-74
2024/03/02 05:37:29;;;;;;;3.97;2.75;;;;;;;;;;12479763;23;20102;-74
2024/03/02 05:42:34;;;;;;;5.57;2.50;;;;;;;;;;12482122;23;20110;-75
2024/03/02 05:47:38;;;;;;;3.45;2.20;;;;;;;;;;12482044;23;20094;-75
2024/03/02 05:52:41;;;;;;;4.40;2.30;;;;;;;;;;12503751;23;20099;-75
2024/03/02 05:58:02;;;;;;;2.92;2.28;;;;;;;;;;12480864;23;20034;-74
2024/03/02 06:03:06;;;;;;;3.80;2.10;;;;;;;;;;12499458;23;20043;-74
2024/03/02 06:08:09;;;;;;;2.17;1.73;;;;;;;;;;12498665;23;20095;-75
2024/03/02 06:13:14;;;;;;;2.15;1.77;;;;;;;;;;12498753;23;20098;-74
2024/03/02 06:18:17;;;;;;;2.50;1.70;;;;;;;;;;12497968;23;20647;-75
2024/03/02 06:23:20;;;;;;;2.10;1.58;;;;;;;;;;12498440;23;20098;-75
2024/03/02 06:28:25;;;;;;;1.85;1.27;;;;;;;;;;12497256;23;20428;-74
2024/03/02 06:33:28;;;;;;;1.80;1.58;;;;;;;;;;12497642;23;20103;-74
2024/03/02 06:38:32;;;;;;;2.15;1.63;;;;;;;;;;12496962;23;20464;-75
2024/03/02 06:43:38;;;;;;;2.17;1.80;;;;;;;;;;12496566;23;20553;-75
2024/03/02 06:48:41;;;;;;;2.38;1.67;;;;;;;;;;12480457;23;20122;-75
2024/03/02 06:53:45;;;;;;;2.70;1.83;;;;;;;;;;12480431;23;20039;-75
2024/03/02 06:58:50;;;;;;;2.70;1.70;;;;;;;;;;12494729;23;20037;-74
2024/03/02 07:03:53;;;;;;;2.05;1.60;;;;;;;;;;12495440;23;20110;-75
2024/03/02 07:08:56;;;;;;;2.03;1.60;;;;;;;;;;12480392;23;20591;-75
2024/03/02 07:14:01;;;;;;;1.75;1.33;;;;;;;;;;12495156;23;20031;-75
2024/03/02 07:19:04;;;;;;;2.17;1.60;;;;;;;;;;12493934;23;20717;-74
2024/03/02 07:24:09;;;;;;;1.95;1.65;;;;;;;;;;12494473;23;20405;-74
2024/03/02 07:29:13;;;;;;;2.42;1.73;;;;;;;;;;12493438;23;20037;-75
2024/03/02 07:34:17;;;;;;;1.92;1.50;;;;;;;;;;12477191;23;20024;-74
2024/03/02 07:39:20;;;;;;;1.52;1.42;;;;;;;;;;12492837;23;20420;-74
2024/03/02 07:44:25;;;;;;;2.10;1.45;;;;;;;;;;12492511;23;20530;-74
2024/03/02 07:49:28;;;;;;;1.88;1.67;;;;;;;;;;12492255;23;20035;-74
2024/03/02 07:54:31;;;;;;;2.95;2.35;;;;;;;;;;12492268;23;20112;-74
2024/03/02 07:59:36;;;;;;;2.83;2.17;;;;;;;;;;12492119;23;20058;-74
2024/03/02 08:04:39;;;;;;;3.33;1.90;;;;;;;;;;12495040;23;20051;-74
2024/03/02 08:09:43;;;;;;;2.63;2.22;;;;;;;;;;12481656;23;20102;-74
2024/03/02 08:14:47;;;;;;;1.60;1.38;;;;;;;;;;12483361;23;20118;-74
2024/03/02 08:19:50;;;;;;;2.38;2.00;;;;;;;;;;12493041;23;20452;-75
2024/03/02 08:24:54;;;;;;;3.40;2.28;;;;;;;;;;12492065;23;20046;-74
2024/03/02 08:29:59;;;;;;;2.83;2.03;;;;;;;;;;12491339;23;20035;-75
2024/03/02 08:35:02;;;;;;;2.40;1.90;;;;;;;;;;12493246;23;20034;-75
2024/03/02 08:40:07;;;;;;;5.03;2.80;;;;;;;;;;12480017;23;20037;-74
2024/03/02 08:45:12;;;;;;;3.38;2.40;;;;;;;;;;12479578;23;20590;-74
2024/03/02 08:50:15;;;;;;;1.98;1.50;;;;;;;;;;12494925;23;20027;-74
2024/03/02 08:55:18;;;;;;;1.98;1.42;;;;;;;;;;12495699;23;20436;-74
2024/03/02 09:00:23;;;;;;;2.05;1.45;;;;;;;;;;12492929;23;20109;-74
2024/03/02 09:05:26;;;;;;;1.90;1.35;;;;;;;;;;12506107;23;20038;-74
2024/03/02 09:10:30;;;;;;;1.67;1.20;;;;;;;;;;12488916;23;20055;-74
2024/03/02 09:15:37;;;;;;;1.30;1.20;;;;;;;;;;12489754;23;20528;-74
2024/03/02 09:20:40;;;;;;;1.75;1.20;;;;;;;;;;12502371;23;20400;-74
2024/03/02 09:25:43;;;;;;;2.63;1.55;;;;;;;;;;12480209;23;20031;-74
2024/03/02 09:30:48;;;;;;;2.88;1.30;;;;;;;;;;12479648;23;20481;-74
2024/03/02 09:35:51;;;;;;;2.28;1.50;;;;;;;;;;12489142;23;20141;-74
2024/03/02 09:40:55;;;;;;;2.47;1.60;;;;;;;;;;12488285;23;20031;-74
2024/03/02 09:46:01;;;;;;;2.58;1.73;;;;;;;;;;12488151;23;20027;-75
2024/03/02 09:51:05;;;;;;;1.45;1.00;;;;;;;;;;12481451;23;20075;-74
2024/03/02 09:56:09;;;;;;;1.33;1.00;;;;;;;;;;12487488;23;20023;-74
2024/03/02 10:01:14;;;;;;;1.00;0.90;;;;;;;;;;12480483;23;20031;-75
2024/03/02 10:06:21;;;;;;;0.93;0.75;;;;;;;;;;12486507;23;20034;-74
2024/03/02 10:11:29;;;;;;;1.48;1.10;;;;;;;;;;12479291;23;20091;-74
2024/03/02 10:16:33;;;;;;;1.55;0.90;;;;;;;;;;12485250;23;20573;-74
2024/03/02 10:21:40;;;;;;;2.90;1.25;;;;;;;;;;12484518;23;20102;-75
2024/03/02 10:26:44;;;;;;;1.88;0.95;;;;;;;;;;12480912;23;20098;-74
2024/03/02 10:31:48;;;;;;;1.33;0.95;;;;;;;;;;12480442;23;20109;-75
2024/03/02 10:36:52;;;;;;;1.08;0.80;;;;;;;;;;12483249;23;20098;-75
2024/03/02 10:41:57;;;;;;;1.23;0.93;;;;;;;;;;12482671;23;20031;-74
2024/03/02 10:47:04;;;;;;;0.68;0.68;;;;;;;;;;12481538;23;20126;-75
2024/03/02 10:52:09;;;;;;;1.13;0.90;;;;;;;;;;12482237;23;20067;-74
2024/03/02 10:57:14;;;;;;;1.77;1.17;;;;;;;;;;12481380;23;20110;-74
2024/03/02 11:02:20;;;;;;;3.10;1.08;;;;;;;;;;12476608;23;20106;-74
2024/03/02 11:07:25;;;;;;;1.02;0.60;;;;;;;;;;12477333;23;20106;-74
2024/03/02 11:12:32;;;;;;;0.88;0.70;;;;;;;;;;12477448;23;20465;-74
2024/03/02 11:17:37;;;;;;;1.08;0.63;;;;;;;;;;12477881;23;20081;-74
2024/03/02 11:22:41;;;;;;;1.30;1.00;;;;;;;;;;12477135;23;20030;-75
2024/03/02 11:28:04;;;;;;;1.50;1.20;;;;;;;;;;12476883;23;20263;-74
2024/03/02 11:33:09;;;;;;;1.35;1.00;;;;;;;;;;12496381;23;20027;-74
2024/03/02 11:38:12;;;;;;;1.98;1.10;;;;;;;;;;12494910;23;20023;-74
2024/03/02 11:43:16;;;;;;;3.58;1.38;;;;;;;;;;12496353;23;20098;-74
2024/03/02 11:48:21;;;;;;;1.67;1.05;;;;;;;;;;12496499;23;20482;-74
2024/03/02 11:53:24;;;;;;;1.92;1.02;;;;;;;;;;12496014;23;20392;-74
2024/03/02 11:58:29;;;;;;;1.15;0.75;;;;;;;;;;12479559;23;20103;-75
2024/03/02 12:03:35;;;;;;;0.80;0.80;;;;;;;;;;12495627;23;20407;-74
2024/03/02 12:08:38;;;;;;;1.30;0.70;;;;;;;;;;12495022;23;20075;-74
2024/03/02 12:13:42;;;;;;;0.98;0.80;;;;;;;;;;12478036;23;20028;-74
2024/03/02 12:18:46;;;;;;;4.13;1.02;;;;;;;;;;12479110;23;20098;-74
2024/03/02 12:23:50;;;;;;;1.88;1.02;;;;;;;;;;12477345;23;20027;-74
2024/03/02 12:28:54;;;;;;;0.75;0.70;;;;;;;;;;12478490;23;20110;-74
2024/03/02 12:33:59;;;;;;;1.27;0.73;;;;;;;;;;12478927;23;20031;-75
2024/03/02 12:39:02;;;;;;;1.02;0.70;;;;;;;;;;12490953;23;20023;-74
2024/03/02 12:44:06;;;;;;;1.73;0.82;;;;;;;;;;12491575;23;20094;-74
2024/03/02 12:49:12;;;;;;;1.25;0.80;;;;;;;;;;12494536;23;20037;-74
2024/03/02 12:54:16;;;;;;;0.63;0.60;;;;;;;;;;12494246;23;20031;-74
2024/03/02 12:59:21;;;;;;;1.75;0.73;;;;;;;;;;12494868;23;20034;-74
2024/03/02 13:04:26;;;;;;;0.85;0.70;;;;;;;;;;12494962;23;20054;-74
2024/03/02 13:09:29;;;;;;;1.23;0.70;;;;;;;;;;12493951;23;20031;-74
2024/03/02 13:14:35;;;;;;;1.13;0.80;;;;;;;;;;12494824;23;20054;-74
2024/03/02 13:19:39;;;;;;;1.10;1.00;;;;;;;;;;12493069;23;20135;-74
2024/03/02 13:24:42;;;;;;;1.20;0.82;;;;;;;;;;12482139;23;20116;-74
2024/03/02 13:29:46;;;;;;;1.40;1.00;;;;;;;;;;12481368;23;20047;-74
2024/03/02 13:34:50;;;;;;;2.13;1.10;;;;;;;;;;12492698;23;20031;-74
2024/03/02 13:39:54;;;;;;;1.38;0.93;;;;;;;;;;12481425;23;20111;-74
2024/03/02 13:44:57;;;;;;;1.42;1.17;;;;;;;;;;12481219;23;20027;-74
2024/03/02 13:50:02;;;;;;;1.55;1.13;;;;;;;;;;12478785;23;20106;-74
2024/03/02 13:55:06;;;;;;;1.40;1.08;;;;;;;;;;12479264;23;20102;-74
2024/03/02 14:00:12;;;;;;;1.42;1.15;;;;;;;;;;12489211;23;20074;-75
2024/03/02 14:05:16;;;;;;;1.77;1.25;;;;;;;;;;12502432;23;20029;-74
2024/03/02 14:10:22;;;;;;;1.95;1.20;;;;;;;;;;12477426;23;20031;-74
2024/03/02 14:15:25;;;;;;;1.88;1.52;;;;;;;;;;12488594;23;20035;-75
2024/03/02 14:20:30;;;;;;;2.03;0.95;;;;;;;;;;12488254;23;20034;-75
2024/03/02 14:25:33;;;;;;;2.33;1.40;;;;;;;;;;12487875;23;20367;-75
2024/03/02 14:30:37;;;;;;;2.45;1.70;;;;;;;;;;12487412;23;20043;-74
2024/03/02 14:35:41;;;;;;;2.47;1.75;;;;;;;;;;12487565;23;20067;-74
2024/03/02 14:40:45;;;;;;;1.92;1.52;;;;;;;;;;12479282;23;20785;-74
2024/03/02 14:45:48;;;;;;;4.60;3.10;;;;;;;;;;12486967;23;20102;-75
2024/03/02 14:50:53;;;;;;;4.88;2.70;;;;;;;;;;12486252;23;20075;-74
2024/03/02 14:55:56;;;;;;;5.53;4.05;;;;;;;;;;12479393;23;20110;-75
2024/03/02 15:00:59;;;;;;;2.85;2.00;;;;;;;;;;12484889;23;20061;-74
2024/03/02 15:06:05;;;;;;;3.42;2.00;;;;;;;;;;12485142;23;20083;-74
2024/03/02 15:11:08;;;;;;;2.97;2.00;;;;;;;;;;12484585;23;20023;-74
2024/03/02 15:16:12;;;;;;;2.95;2.05;;;;;;;;;;12478732;23;20053;-74
2024/03/02 15:21:18;;;;;;;3.00;1.95;;;;;;;;;;12478465;23;20037;-74
2024/03/02 15:26:23;;;;;;;2.22;1.67;;;;;;;;;;12476955;23;20023;-74
2024/03/02 15:31:26;;;;;;;4.32;2.20;;;;;;;;;;12475998;23;20027;-74
2024/03/02 15:36:31;;;;;;;2.85;1.58;;;;;;;;;;12477529;23;20513;-74
2024/03/02 15:41:34;;;;;;;2.70;1.65;;;;;;;;;;12482649;23;20399;-75
2024/03/02 15:46:37;;;;;;;2.17;1.70;;;;;;;;;;12478324;23;20019;-74
2024/03/02 15:51:44;;;;;;;2.47;1.77;;;;;;;;;;12480196;23;20030;-75
2024/03/02 15:56:47;;;;;;;2.20;1.67;;;;;;;;;;12481743;23;20027;-75
2024/03/02 16:01:51;;;;;;;3.38;1.90;;;;;;;;;;12478822;23;20102;-74
2024/03/02 16:06:55;;;;;;;2.20;1.58;;;;;;;;;;12499122;23;20147;-74
2024/03/02 16:11:59;;;;;;;3.13;1.83;;;;;;;;;;12477918;23;20034;-74
2024/03/02 16:17:02;;;;;;;2.17;1.70;;;;;;;;;;12481222;23;20447;-74
2024/03/02 16:22:10;;;;;;;2.55;1.80;;;;;;;;;;12480669;23;20056;-74
2024/03/02 16:27:13;;;;;;;1.90;1.40;;;;;;;;;;12485584;23;20451;-74
2024/03/02 16:32:17;;;;;;;2.60;1.70;;;;;;;;;;12484115;23;20027;-75
2024/03/02 16:37:23;;;;;;;2.80;1.90;;;;;;;;;;12483793;23;20061;-75
2024/03/02 16:42:26;;;;;;;3.33;2.30;;;;;;;;;;12482494;23;20099;-75
2024/03/02 16:47:29;;;;;;;3.20;2.38;;;;;;;;;;12483091;23;20345;-74
2024/03/02 16:52:34;;;;;;;3.65;1.90;;;;;;;;;;12483060;23;20559;-74
2024/03/02 16:57:37;;;;;;;3.45;2.10;;;;;;;;;;12481921;23;20431;-74
2024/03/02 17:02:40;;;;;;;2.60;1.80;;;;;;;;;;12482049;23;20034;-74
2024/03/02 17:07:45;;;;;;;3.08;2.20;;;;;;;;;;12478736;23;20106;-75
2024/03/02 17:12:48;;;;;;;3.97;2.20;;;;;;;;;;12501097;23;20095;-75
2024/03/02 17:17:51;;;;;;;2.22;1.70;;;;;;;;;;12490718;23;20098;-73
2024/03/02 17:22:56;;;;;;;2.33;1.65;;;;;;;;;;12501350;23;20019;-72
2024/03/02 17:28:18;;;;;;;2.22;1.60;;;;;;;;;;12501535;23;20023;-72
2024/03/02 17:33:22;;;;;;;2.17;1.65;;;;;;;;;;12500626;23;20106;-72
2024/03/02 17:38:27;;;;;;;2.40;1.88;;;;;;;;;;12480064;23;20094;-72
2024/03/02 17:43:31;;;;;;;3.50;2.63;;;;;;;;;;12497362;23;20585;-72
2024/03/02 17:48:34;;;;;;;5.13;3.58;;;;;;;;;;12484910;23;20023;-74
2024/03/02 17:53:38;;;;;;;6.85;3.78;;;;;;;;;;12498277;23;20102;-74
2024/03/02 17:58:42;;;;;;;4.57;2.95;;;;;;;;;;12482330;23;20402;-74
2024/03/02 18:03:45;;;;;;;3.08;2.28;;;;;;;;;;12481381;23;20035;-74
2024/03/02 18:08:49;;;;;;;3.47;2.20;;;;;;;;;;12496825;23;20019;-73
2024/03/02 18:13:53;;;;;;;3.58;2.50;;;;;;;;;;12495394;23;20699;-74
2024/03/02 18:18:56;;;;;;;3.17;2.20;;;;;;;;;;12478213;23;20432;-74
2024/03/02 18:24:01;;;;;;;3.22;1.75;;;;;;;;;;12475333;23;20027;-73
2024/03/02 18:29:08;;;;;;;1.95;1.52;;;;;;;;;;12477859;23;20453;-73
2024/03/02 18:34:11;;;;;;;5.43;2.10;;;;;;;;;;12480579;23;20592;-74
2024/03/02 18:39:16;;;;;;;4.30;2.92;;;;;;;;;;12476230;23;20063;-74
2024/03/02 18:44:19;;;;;;;3.65;2.20;;;;;;;;;;12494982;23;20031;-73
2024/03/02 18:49:23;;;;;;;4.50;2.50;;;;;;;;;;12481408;23;20033;-74
2024/03/02 18:54:28;;;;;;;4.00;2.45;;;;;;;;;;12492989;23;20051;-74
2024/03/02 18:59:31;;;;;;;4.07;2.67;;;;;;;;;;12489766;23;20102;-74
2024/03/02 19:04:34;;;;;;;4.07;2.35;;;;;;;;;;12478976;23;20658;-74
2024/03/02 19:09:39;;;;;;;3.28;2.10;;;;;;;;;;12491781;23;20027;-74
2024/03/02 19:14:42;;;;;;;3.75;2.00;;;;;;;;;;12492134;23;20043;-73
2024/03/02 19:19:45;;;;;;;3.80;2.72;;;;;;;;;;12491870;23;20364;-74
2024/03/02 19:24:50;;;;;;;4.72;3.20;;;;;;;;;;12479095;23;20051;-74
2024/03/02 19:29:53;;;;;;;6.05;3.35;;;;;;;;;;12490834;23;20047;-74
2024/03/02 19:34:56;;;;;;;5.03;3.10;;;;;;;;;;12480326;23;20058;-73
2024/03/02 19:40:01;;;;;;;4.45;2.65;;;;;;;;;;12479554;23;20104;-74
2024/03/02 19:45:06;;;;;;;3.35;2.47;;;;;;;;;;12481157;23;20092;-74
2024/03/02 19:50:12;;;;;;;3.42;2.42;;;;;;;;;;12479886;23;20269;-73
2024/03/02 19:55:17;;;;;;;3.10;2.03;;;;;;;;;;12491948;23;20033;-73
2024/03/02 20:00:21;;;;;;;3.95;2.08;;;;;;;;;;12490990;23;20388;-74
2024/03/02 20:05:25;;;;;;;3.65;2.75;;;;;;;;;;12492859;23;20034;-74
2024/03/02 20:10:30;;;;;;;4.63;2.50;;;;;;;;;;12484475;23;20543;-73
2024/03/02 20:15:33;;;;;;;4.57;2.33;;;;;;;;;;12492190;23;20062;-73
2024/03/02 20:20:36;;;;;;;3.97;2.58;;;;;;;;;;12481096;23;20022;-74
2024/03/02 20:25:41;;;;;;;3.25;2.25;;;;;;;;;;12482960;23;20111;-74
2024/03/02 20:30:45;;;;;;;3.20;2.53;;;;;;;;;;12506144;23;20039;-74
2024/03/02 20:35:48;;;;;;;6.25;3.38;;;;;;;;;;12492044;23;20030;-73
2024/03/02 20:40:53;;;;;;;5.90;4.13;;;;;;;;;;12480077;23;20513;-73
2024/03/02 20:45:57;;;;;;;4.75;3.70;;;;;;;;;;12490418;23;20106;-73
2024/03/02 20:51:00;;;;;;;8.73;4.90;;;;;;;;;;12490057;23;20602;-74
2024/03/02 20:56:05;;;;;;;7.93;5.13;;;;;;;;;;12482496;23;20074;-73
2024/03/02 21:01:11;;;;;;;6.63;4.93;;;;;;;;;;12489710;23;20103;-73
2024/03/02 21:06:14;;;;;;;6.65;4.85;;;;;;;;;;12483748;23;20264;-73
2024/03/02 21:11:21;;;;;;;7.47;5.10;;;;;;;;;;12482459;23;20586;-73
2024/03/02 21:16:25;;;;;;;8.43;6.00;;;;;;;;;;12489000;23;20062;-73
2024/03/02 21:21:28;;;;;;;8.25;5.15;;;;;;;;;;12487691;23;20106;-74
2024/03/02 21:26:37;;;;;;;8.13;5.75;;;;;;;;;;12488332;23;20031;-73
2024/03/02 21:31:41;;;;;;;7.78;5.35;;;;;;;;;;12487281;23;20421;-73
2024/03/02 21:36:44;;;;;;;7.70;5.72;;;;;;;;;;12487730;23;20110;-74
2024/03/02 21:41:48;;;;;;;7.75;5.50;;;;;;;;;;12483075;23;20087;-73
2024/03/02 21:46:52;;;;;;;8.48;6.03;;;;;;;;;;12486607;23;20058;-74
2024/03/02 21:51:55;;;;;;;8.70;5.43;;;;;;;;;;12486010;23;20033;-74
2024/03/02 21:57:02;;;;;;;7.85;5.88;;;;;;;;;;12486427;23;20032;-74
2024/03/02 22:02:05;;;;;;;;;;;;;;;;;;12483248;23;20359;-74
2024/03/02 22:07:08;;;;;;;12.35;7.80;;;;;;;;;;12481856;23;19925;-73
2024/03/02 22:12:13;;;;;;;7.72;5.80;;;;;;;;;;12481278;23;20027;-73
2024/03/02 22:17:17;;;;;;;7.40;5.10;;;;;;;;;;12472896;23;20102;-73
2024/03/02 22:22:20;;;;;;;8.10;5.88;;;;;;;;;;12479132;23;20019;-74
2024/03/02 22:27:25;;;;;;;7.00;4.95;;;;;;;;;;12480640;23;20034;-73
2024/03/02 22:32:29;;;;;;;6.38;4.50;;;;;;;;;;12482442;23;20039;-73
2024/03/02 22:37:32;;;;;;;4.95;3.53;;;;;;;;;;12481771;23;20523;-74
2024/03/02 22:42:36;;;;;;;6.65;5.00;;;;;;;;;;12481428;23;20527;-73
2024/03/02 22:47:40;;;;;;;6.72;4.45;;;;;;;;;;12478557;23;20029;-73
2024/03/02 22:52:43;;;;;;;5.47;3.72;;;;;;;;;;12476385;23;20054;-74
2024/03/02 22:57:49;;;;;;;4.82;3.55;;;;;;;;;;12500415;23;20019;-73
2024/03/02 23:02:52;;;;;;;5.60;4.10;;;;;;;;;;12480881;23;20050;-73
2024/03/02 23:07:55;;;;;;;4.82;3.70;;;;;;;;;;12500027;23;20023;-74
2024/03/02 23:13:00;;;;;;;7.32;5.35;;;;;;;;;;12495991;23;20015;-74
2024/03/02 23:18:04;;;;;;;8.45;5.40;;;;;;;;;;12472051;23;20054;-74
2024/03/02 23:23:08;;;;;;;9.10;5.95;;;;;;;;;;12474504;23;20601;-74
2024/03/02 23:28:13;;;;;;;7.15;5.13;;;;;;;;;;12475988;23;20039;-74
2024/03/02 23:33:16;;;;;;;6.82;4.70;;;;;;;;;;12494772;23;20031;-74
2024/03/02 23:38:19;;;;;;;5.95;4.22;;;;;;;;;;12474893;23;20486;-74
2024/03/02 23:43:24;;;;;;;5.90;4.35;;;;;;;;;;12494195;23;20463;-74
2024/03/02 23:48:27;;;;;;;6.85;4.38;;;;;;;;;;12495468;23;20026;-74
2024/03/02 23:53:31;;;;;;;9.30;5.78;;;;;;;;;;12479650;23;20038;-74
2024/03/02 23:58:36;;;;;;;6.47;4.07;;;;;;;;;;12495662;23;20035;-74
